Time;durP1;ratioP1;P1;durP2;ratioP2;P2;SDS_P1;SDS_P2;PMS_P1;PMS_P2;Temp;Humidity;BMP_temperature;BMP_pressure;BME280_temperature;BME280_humidity;BME280_pressure;Samples;Min_cycle;Max_cycle;Signal;HPM_P1;HPM_P2
2021/07/14 00:01:21;;;;;;;2.8;2.4;;;;;;;14.45;98.75879;932.9952;;;;
2021/07/14 00:03:46;;;;;;;4.2;2.3;;;;;;;14.51;97.89453;933.0135;;;;
2021/07/14 00:06:12;;;;;;;3;2.7;;;;;;;14.58;97.13867;933.1207;;;;
2021/07/14 00:08:37;;;;;;;2.4;2.2;;;;;;;14.61;96.09668;933.1932;;;;
2021/07/14 00:11:03;;;;;;;3.4;2.5;;;;;;;14.57;96.3877;933.2394;;;;
2021/07/14 00:13:32;;;;;;;2.9;2.5;;;;;;;14.53;97.15234;933.2288;;;;
2021/07/14 00:23:19;;;;;;;2.8;2.4;;;;;;;14.66;96.85742;933.3554;;;;
2021/07/14 00:25:43;;;;;;;2.8;2.4;;;;;;;14.61;97.88281;933.3278;;;;
2021/07/14 00:28:08;;;;;;;2.4;2.2;;;;;;;14.63;97.45996;933.3928;;;;
2021/07/14 00:30:36;;;;;;;3;2.2;;;;;;;14.59;97.28125;933.4714;;;;
2021/07/14 00:33:01;;;;;;;3.7;2;;;;;;;14.34;98.01953;933.5167;;;;
2021/07/14 00:35:26;;;;;;;2.3;2.1;;;;;;;14.36;98.73633;933.6686;;;;
2021/07/14 00:37:52;;;;;;;2.8;2.1;;;;;;;14.4;98.5752;933.7017;;;;
2021/07/14 00:40:17;;;;;;;3;2.2;;;;;;;14.42;98.3584;933.7145;;;;
2021/07/14 00:42:46;;;;;;;3.1;2.4;;;;;;;14.47;97.88672;933.5756;;;;
2021/07/14 00:45:11;;;;;;;3.3;2.4;;;;;;;14.58;97.46191;933.5237;;;;
2021/07/14 00:47:44;;;;;;;3.7;2.2;;;;;;;14.57;97.52637;933.5527;;;;
2021/07/14 00:50:04;;;;;;;3.4;2.5;;;;;;;14.65;97.69434;933.6457;;;;
2021/07/14 00:52:30;;;;;;;4.1;2.7;;;;;;;14.66;96.73047;933.6302;;;;
2021/07/14 00:54:55;;;;;;;4.4;2.5;;;;;;;14.68;96.5293;933.7117;;;;
2021/07/14 00:57:25;;;;;;;2.9;2.5;;;;;;;14.63;96.5752;933.8471;;;;
2021/07/14 00:59:46;;;;;;;2.9;2.5;;;;;;;14.67;97.05371;933.8635;;;;
2021/07/14 01:02:11;;;;;;;2.7;2.5;;;;;;;14.75;97.52344;933.7076;;;;
2021/07/14 01:04:37;;;;;;;2.9;2.6;;;;;;;14.77;97.23926;933.5574;;;;
2021/07/14 01:07:02;;;;;;;2.6;2.4;;;;;;;14.84;97.70508;933.5207;;;;
2021/07/14 01:09:27;;;;;;;3.1;2.7;;;;;;;14.82;97.2168;933.581;;;;
2021/07/14 01:11:52;;;;;;;3.3;2.7;;;;;;;14.81;97.19141;933.5184;;;;
2021/07/14 01:14:22;;;;;;;3.4;2.5;;;;;;;14.81;96.61426;933.5408;;;;
2021/07/14 01:16:48;;;;;;;3.2;2.5;;;;;;;14.85;96.63672;933.6255;;;;
2021/07/14 01:19:13;;;;;;;3.1;2.3;;;;;;;14.9;96.25195;933.6111;;;;
2021/07/14 01:21:38;;;;;;;3.3;2.3;;;;;;;14.86;96.55566;933.5549;;;;
2021/07/14 01:24:03;;;;;;;3.7;2.6;;;;;;;14.74;96.55273;933.5081;;;;
2021/07/14 01:26:28;;;;;;;2.8;2.3;;;;;;;14.65;96.8418;933.4791;;;;
2021/07/14 01:28:54;;;;;;;4.6;2.5;;;;;;;14.68;97.12891;933.5017;;;;
2021/07/14 01:31:19;;;;;;;2.7;2.5;;;;;;;14.77;96.5127;933.4893;;;;
2021/07/14 01:33:50;;;;;;;2.6;2.4;;;;;;;14.72;96.95215;933.3962;;;;
2021/07/14 01:36:13;;;;;;;2.5;2.3;;;;;;;14.66;97.15723;933.2545;;;;
2021/07/14 01:38:40;;;;;;;3;2.8;;;;;;;14.62;97.02246;933.1516;;;;
2021/07/14 01:41:05;;;;;;;3.4;3.1;;;;;;;14.66;97.28418;933.0541;;;;
2021/07/14 01:43:30;;;;;;;3.1;2.9;;;;;;;14.67;97.36621;933.0419;;;;
2021/07/14 01:45:56;;;;;;;3.3;2.9;;;;;;;14.76;96.97168;933.0606;;;;
2021/07/14 01:48:21;;;;;;;3.3;2.7;;;;;;;14.75;96.84277;933.1017;;;;
2021/07/14 01:50:50;;;;;;;3.1;2.7;;;;;;;14.7;96.98047;932.9526;;;;
2021/07/14 01:53:15;;;;;;;3.1;2.8;;;;;;;14.68;97.33594;932.8807;;;;
2021/07/14 01:55:42;;;;;;;3.7;2.7;;;;;;;14.73;96.43555;932.973;;;;
2021/07/14 01:58:07;;;;;;;3.5;2.9;;;;;;;14.73;96.33203;933.0731;;;;
2021/07/14 02:00:37;;;;;;;3.7;3.2;;;;;;;14.75;95.9668;933.1617;;;;
2021/07/14 02:03:08;;;;;;;3.4;3.1;;;;;;;14.77;96.38574;933.0869;;;;
2021/07/14 02:05:30;;;;;;;3.4;3.1;;;;;;;14.78;96.24023;933.0692;;;;
2021/07/14 02:07:58;;;;;;;3.8;3.5;;;;;;;14.89;96.38867;933.0549;;;;
2021/07/14 02:10:23;;;;;;;3.1;2.9;;;;;;;14.9;96.17383;932.9882;;;;
2021/07/14 02:12:49;;;;;;;3.6;3.1;;;;;;;14.89;97.01172;933.0325;;;;
2021/07/14 02:15:14;;;;;;;3.1;2.5;;;;;;;14.82;96.58203;932.9847;;;;
2021/07/14 02:17:39;;;;;;;3.9;2.8;;;;;;;14.81;96.81055;933.007;;;;
2021/07/14 02:20:04;;;;;;;2.9;2.6;;;;;;;14.79;96.93164;932.9928;;;;
2021/07/14 02:22:31;;;;;;;2.9;2.7;;;;;;;14.76;97.46777;932.8844;;;;
2021/07/14 02:24:56;;;;;;;3.3;3;;;;;;;14.76;97.52539;932.8265;;;;
2021/07/14 02:27:23;;;;;;;4.3;3.2;;;;;;;14.71;97.46875;932.6599;;;;
2021/07/14 02:29:48;;;;;;;5.3;2.6;;;;;;;14.75;97.02734;932.616;;;;
2021/07/14 02:32:13;;;;;;;2.5;2.2;;;;;;;14.81;96.71875;932.6423;;;;
2021/07/14 02:34:43;;;;;;;3.3;2.6;;;;;;;14.83;96.62988;932.6319;;;;
2021/07/14 02:37:11;;;;;;;4;2.6;;;;;;;14.85;96.55176;932.6067;;;;
2021/07/14 02:39:35;;;;;;;2.9;2.6;;;;;;;14.9;96.29785;932.7045;;;;
2021/07/14 02:42:04;;;;;;;2.4;2.1;;;;;;;14.95;96.7832;932.7397;;;;
2021/07/14 02:44:32;;;;;;;3.4;1.8;;;;;;;14.89;96.82715;932.6558;;;;
2021/07/14 02:46:53;;;;;;;2.5;2;;;;;;;14.88;96.7002;932.7969;;;;
2021/07/14 02:49:22;;;;;;;2.4;2.2;;;;;;;14.88;96.51563;932.7239;;;;
2021/07/14 02:51:47;;;;;;;2.2;2;;;;;;;14.87;96.46484;932.717;;;;
2021/07/14 02:54:16;;;;;;;3.4;2.3;;;;;;;14.82;96.32813;932.7794;;;;
2021/07/14 02:56:41;;;;;;;2.2;2;;;;;;;14.86;96.19824;932.891;;;;
2021/07/14 02:59:08;;;;;;;2.4;2.2;;;;;;;14.87;95.98242;932.8812;;;;
2021/07/14 03:01:33;;;;;;;3.1;2.8;;;;;;;14.81;96.33789;932.8596;;;;
2021/07/14 03:03:58;;;;;;;2.9;2.4;;;;;;;14.81;96.28027;932.9155;;;;
2021/07/14 03:06:25;;;;;;;2.4;2.2;;;;;;;14.78;96.29785;932.9313;;;;
2021/07/14 03:08:50;;;;;;;3.5;2.3;;;;;;;14.82;96.39551;933.0737;;;;
2021/07/14 03:11:16;;;;;;;3.8;2.7;;;;;;;14.82;96.40918;933.125;;;;
2021/07/14 03:13:41;;;;;;;3.9;3;;;;;;;14.81;95.63477;933.1674;;;;
2021/07/14 03:16:08;;;;;;;4.4;2.8;;;;;;;14.75;95.69043;933.2692;;;;
2021/07/14 03:18:33;;;;;;;4.1;2.2;;;;;;;14.69;96.29883;933.424;;;;
2021/07/14 03:21:05;;;;;;;2.9;2.2;;;;;;;14.7;96.75195;933.4045;;;;
2021/07/14 03:23:30;;;;;;;5.4;3.1;;;;;;;14.75;96.61426;933.4895;;;;
2021/07/14 03:25:58;;;;;;;4.3;3.2;;;;;;;14.68;97.7168;933.4553;;;;
2021/07/14 03:28:22;;;;;;;4;3.4;;;;;;;14.68;98.12012;933.4641;;;;
2021/07/14 03:30:48;;;;;;;4;3.4;;;;;;;14.65;97.79883;933.4871;;;;
2021/07/14 03:33:13;;;;;;;3.7;3.1;;;;;;;14.62;98.1748;933.6252;;;;
2021/07/14 03:35:42;;;;;;;3.3;3;;;;;;;14.68;98.46387;933.6694;;;;
2021/07/14 03:38:09;;;;;;;3.8;3.5;;;;;;;14.73;98.19922;933.6149;;;;
2021/07/14 03:40:35;;;;;;;4.1;2.8;;;;;;;14.76;97.50195;933.5928;;;;
2021/07/14 03:43:00;;;;;;;3;2.7;;;;;;;14.78;96.91992;933.587;;;;
2021/07/14 03:45:27;;;;;;;3;2.6;;;;;;;14.77;97.00781;933.5879;;;;
2021/07/14 03:47:52;;;;;;;3.6;3;;;;;;;14.76;96.84473;933.5287;;;;
2021/07/14 03:50:20;;;;;;;3.2;2.9;;;;;;;14.8;96.2998;933.5995;;;;
2021/07/14 03:52:45;;;;;;;5.2;2.9;;;;;;;14.7;95.72461;933.6033;;;;
2021/07/14 03:55:12;;;;;;;4.4;3.3;;;;;;;14.54;96.62402;933.5619;;;;
2021/07/14 03:57:37;;;;;;;3.5;3.2;;;;;;;14.57;96.9873;933.4958;;;;
2021/07/14 04:00:02;;;;;;;4;3.6;;;;;;;14.55;96.7666;933.4559;;;;
2021/07/14 04:02:30;;;;;;;3.5;3.2;;;;;;;14.59;96.58789;933.4346;;;;
2021/07/14 04:04:55;;;;;;;4.1;3.4;;;;;;;14.61;96.64941;933.5289;;;;
2021/07/14 04:07:20;;;;;;;3.9;3.2;;;;;;;14.61;96.41895;933.512;;;;
2021/07/14 04:09:45;;;;;;;3.2;2.9;;;;;;;14.63;95.89453;933.5025;;;;
2021/07/14 04:12:12;;;;;;;3.3;2.6;;;;;;;14.64;95.89648;933.5544;;;;
2021/07/14 04:14:37;;;;;;;2.5;2.3;;;;;;;14.62;96.60742;933.3936;;;;
2021/07/14 04:17:07;;;;;;;5;2.8;;;;;;;14.64;96.76074;933.3862;;;;
2021/07/14 04:19:34;;;;;;;3.6;2.6;;;;;;;14.71;96.20117;933.4244;;;;
2021/07/14 04:21:59;;;;;;;3.1;2.5;;;;;;;14.67;95.9834;933.4747;;;;
2021/07/14 04:24:27;;;;;;;3;2.5;;;;;;;14.57;96.23633;933.3572;;;;
2021/07/14 04:26:52;;;;;;;3.7;2.3;;;;;;;14.51;96.63867;933.3981;;;;
2021/07/14 04:29:17;;;;;;;3.4;2.6;;;;;;;14.55;96.81055;933.307;;;;
2021/07/14 04:31:44;;;;;;;4.1;2.7;;;;;;;14.65;97.04004;933.2914;;;;
2021/07/14 04:34:09;;;;;;;4.4;3;;;;;;;14.69;95.99902;933.355;;;;
2021/07/14 04:36:35;;;;;;;3.7;2.8;;;;;;;14.73;94.95996;933.3184;;;;
2021/07/14 04:39:00;;;;;;;2.7;2.5;;;;;;;14.76;94.68848;933.3098;;;;
2021/07/14 04:41:28;;;;;;;3.8;2.8;;;;;;;14.84;94.99512;933.3178;;;;
2021/07/14 04:43:52;;;;;;;3.2;2.6;;;;;;;14.77;94.69043;933.3378;;;;
2021/07/14 04:46:20;;;;;;;3;2.6;;;;;;;14.76;94.66602;933.4053;;;;
2021/07/14 04:48:45;;;;;;;2.7;2.3;;;;;;;14.79;94.86816;933.3993;;;;
2021/07/14 04:51:11;;;;;;;3.8;2.4;;;;;;;14.84;95.24805;933.3283;;;;
2021/07/14 04:53:36;;;;;;;3.5;2.4;;;;;;;14.81;95.09082;933.3173;;;;
2021/07/14 04:56:02;;;;;;;2.4;2.2;;;;;;;14.83;94.16113;933.2675;;;;
2021/07/14 04:58:28;;;;;;;3.4;2.1;;;;;;;14.9;93.64746;933.2263;;;;
2021/07/14 05:00:54;;;;;;;3.6;2.2;;;;;;;14.97;93.55762;933.218;;;;
2021/07/14 05:03:19;;;;;;;2.5;2;;;;;;;15;92.82715;933.1671;;;;
2021/07/14 05:05:45;;;;;;;2.7;1.9;;;;;;;15.05;91.3252;933.1786;;;;
2021/07/14 05:08:10;;;;;;;2.6;1.9;;;;;;;14.88;92.96191;933.2234;;;;
2021/07/14 05:10:39;;;;;;;3.4;1.8;;;;;;;14.9;91.7334;933.2527;;;;
2021/07/14 05:13:03;;;;;;;1.8;1.7;;;;;;;14.75;92.68066;933.3766;;;;
2021/07/14 05:15:32;;;;;;;2.2;1.8;;;;;;;14.71;93.53809;933.41;;;;
2021/07/14 05:17:57;;;;;;;2.2;2;;;;;;;14.8;93.08203;933.3535;;;;
2021/07/14 05:20:28;;;;;;;2.2;2;;;;;;;14.82;92.3623;933.3886;;;;
2021/07/14 05:22:52;;;;;;;3;2.3;;;;;;;14.86;93.11914;933.368;;;;
2021/07/14 05:25:19;;;;;;;2.2;2;;;;;;;14.87;91.72754;933.3478;;;;
2021/07/14 05:27:46;;;;;;;2.3;2.1;;;;;;;14.95;91.59277;933.3523;;;;
2021/07/14 05:30:14;;;;;;;3.5;2;;;;;;;15.01;90.64844;933.3;;;;
2021/07/14 05:32:39;;;;;;;4.5;2;;;;;;;15.01;89.96777;933.3361;;;;
2021/07/14 05:35:06;;;;;;;2.7;1.9;;;;;;;15.01;90.07129;933.3368;;;;
2021/07/14 05:37:31;;;;;;;2.3;1.9;;;;;;;15.08;90.48828;933.3434;;;;
2021/07/14 05:39:57;;;;;;;2.7;2.1;;;;;;;15.1;89.52539;933.3445;;;;
2021/07/14 05:42:22;;;;;;;2.1;1.8;;;;;;;14.98;89.75488;933.2539;;;;
2021/07/14 05:44:51;;;;;;;2.4;1.7;;;;;;;15.12;90.50977;933.3636;;;;
2021/07/14 05:47:17;;;;;;;3.7;2.1;;;;;;;14.98;90.26074;933.367;;;;
2021/07/14 05:49:45;;;;;;;2.3;1.8;;;;;;;15.11;89.43457;933.3766;;;;
2021/07/14 05:52:14;;;;;;;2.8;2;;;;;;;15.19;89.50879;933.4066;;;;
2021/07/14 05:54:40;;;;;;;2.2;2;;;;;;;15.23;90.47266;933.3926;;;;
2021/07/14 05:57:05;;;;;;;2.1;1.9;;;;;;;15.23;89.14648;933.3693;;;;
2021/07/14 05:59:34;;;;;;;2.2;2;;;;;;;15.27;88.63672;933.3566;;;;
2021/07/14 06:01:59;;;;;;;3.1;2.1;;;;;;;15.32;89.25781;933.2795;;;;
2021/07/14 06:04:24;;;;;;;5.3;2.3;;;;;;;15.28;88.89258;933.329;;;;
2021/07/14 06:06:49;;;;;;;5.4;2.2;;;;;;;15.38;89.62695;933.3516;;;;
2021/07/14 06:09:17;;;;;;;3.5;2;;;;;;;15.42;89.37012;933.4442;;;;
2021/07/14 06:11:42;;;;;;;12.2;10.9;;;;;;;15.55;87.58496;933.4307;;;;
2021/07/14 06:14:12;;;;;;;308.3;274.5;;;;;;;15.54;88.83008;933.4164;;;;
2021/07/14 06:16:51;;;;;;;84.3;74.9;;;;;;;15.51;88.58203;933.5469;;;;
2021/07/14 06:19:22;;;;;;;3.8;2.3;;;;;;;15.33;86.83496;933.5641;;;;
2021/07/14 06:21:53;;;;;;;1.8;1.7;;;;;;;15.33;86.3291;933.6339;;;;
2021/07/14 06:24:22;;;;;;;2;1.6;;;;;;;15.46;87.92285;933.6322;;;;
2021/07/14 06:26:48;;;;;;;4.5;2;;;;;;;15.41;89.44922;933.6398;;;;
2021/07/14 06:29:15;;;;;;;7.3;2;;;;;;;15.27;89.76758;933.5112;;;;
2021/07/14 06:31:45;;;;;;;7.7;2.4;;;;;;;15.09;91.22852;933.5364;;;;
2021/07/14 06:34:05;;;;;;;4.2;1.6;;;;;;;15;91.41992;933.4436;;;;
2021/07/14 06:36:33;;;;;;;2.6;1.6;;;;;;;15.21;89.68555;933.4431;;;;
2021/07/14 06:39:04;;;;;;;3.1;1.7;;;;;;;15.41;90.66211;933.4817;;;;
2021/07/14 06:41:33;;;;;;;2.6;1.8;;;;;;;15.47;88.93066;933.4433;;;;
2021/07/14 06:44:01;;;;;;;3.4;1.6;;;;;;;15.41;91.13477;933.5419;;;;
2021/07/14 06:46:28;;;;;;;3.6;1.8;;;;;;;15.64;89.17383;933.6344;;;;
2021/07/14 06:48:53;;;;;;;2.5;1.6;;;;;;;15.75;87.65918;933.6549;;;;
2021/07/14 06:51:20;;;;;;;1.7;1.6;;;;;;;15.52;88.02734;933.7586;;;;
2021/07/14 06:53:46;;;;;;;1.5;1.4;;;;;;;15.4;87.92285;933.7789;;;;
2021/07/14 06:56:11;;;;;;;2;1.7;;;;;;;15.4;90.03613;933.8181;;;;
2021/07/14 06:58:39;;;;;;;2.9;1.6;;;;;;;15.13;90.89355;933.7916;;;;
2021/07/14 07:01:05;;;;;;;1.6;1.5;;;;;;;15.35;90.67188;933.851;;;;
2021/07/14 07:03:29;;;;;;;2.5;2;;;;;;;15.58;90.85742;933.8812;;;;
2021/07/14 07:05:57;;;;;;;1.9;1.6;;;;;;;15.51;87.95703;933.8455;;;;
2021/07/14 07:08:22;;;;;;;1.5;1.4;;;;;;;15.53;88.14551;933.878;;;;
2021/07/14 07:10:51;;;;;;;1.8;1.7;;;;;;;15.41;90.37109;933.8895;;;;
2021/07/14 07:13:21;;;;;;;1.8;1.7;;;;;;;15.27;90.94531;933.8514;;;;
2021/07/14 07:15:53;;;;;;;2.5;1.6;;;;;;;15.45;90.02246;933.9531;;;;
2021/07/14 07:18:19;;;;;;;2.6;1.6;;;;;;;15.29;87.77441;933.9161;;;;
2021/07/14 07:20:46;;;;;;;2.3;1.6;;;;;;;15.17;87.24121;933.9778;;;;
2021/07/14 07:23:11;;;;;;;3.3;1.6;;;;;;;15.12;87.25586;933.981;;;;
2021/07/14 07:25:40;;;;;;;2.5;1.5;;;;;;;15;87.14941;933.9801;;;;
2021/07/14 07:28:13;;;;;;;2;1.6;;;;;;;15.1;88.61328;933.9949;;;;
2021/07/14 07:30:35;;;;;;;3;1.6;;;;;;;15.26;88.7832;934.0226;;;;
2021/07/14 07:33:07;;;;;;;1.9;1.2;;;;;;;15.22;88.12891;934.0449;;;;
2021/07/14 07:35:32;;;;;;;2.7;1.7;;;;;;;15.26;89.47754;933.9695;;;;
2021/07/14 07:37:57;;;;;;;4.1;2.2;;;;;;;15.32;89.47656;933.8875;;;;
2021/07/14 07:40:30;;;;;;;2.8;1.8;;;;;;;15.48;89.03516;933.9255;;;;
2021/07/14 07:42:57;;;;;;;2.7;1.6;;;;;;;15.63;87.80859;933.9684;;;;
2021/07/14 07:45:22;;;;;;;2.1;1.5;;;;;;;15.57;88.85742;933.9392;;;;
2021/07/14 07:47:50;;;;;;;1.7;1.6;;;;;;;15.48;88.08789;933.9263;;;;
2021/07/14 07:50:22;;;;;;;3.1;1.6;;;;;;;15.68;89.23926;933.9395;;;;
2021/07/14 07:52:51;;;;;;;2.2;1.5;;;;;;;15.8;87.34668;933.8739;;;;
2021/07/14 07:55:23;;;;;;;2.2;1.4;;;;;;;15.56;88.26758;933.8406;;;;
2021/07/14 07:57:51;;;;;;;2.9;1.6;;;;;;;15.83;88.07813;933.8811;;;;
2021/07/14 08:00:16;;;;;;;2.8;1.4;;;;;;;15.69;88.35156;933.9233;;;;
2021/07/14 08:02:46;;;;;;;4.5;1.5;;;;;;;15.71;88.07715;933.927;;;;
2021/07/14 08:05:11;;;;;;;2.3;1.7;;;;;;;15.78;85.72266;933.9931;;;;
2021/07/14 08:07:38;;;;;;;2.9;1.4;;;;;;;15.56;86.51074;933.9458;;;;
2021/07/14 08:10:03;;;;;;;3.6;1.8;;;;;;;15.61;86.30176;933.9476;;;;
2021/07/14 08:12:32;;;;;;;3.4;1.8;;;;;;;15.76;87.04883;933.8554;;;;
2021/07/14 08:14:57;;;;;;;4;1.7;;;;;;;16.12;85.09473;933.7731;;;;
2021/07/14 08:17:30;;;;;;;2;1.8;;;;;;;16.04;85.13867;933.8855;;;;
2021/07/14 08:19:55;;;;;;;2.6;1.9;;;;;;;16.71;84.35352;933.8887;;;;
2021/07/14 08:22:26;;;;;;;2;1.8;;;;;;;16.96;81.51465;933.8723;;;;
2021/07/14 08:24:55;;;;;;;2.8;1.5;;;;;;;17.11;81.01074;933.9078;;;;
2021/07/14 08:27:24;;;;;;;4.1;1.5;;;;;;;17.1;78.20508;933.9063;;;;
2021/07/14 08:29:46;;;;;;;1.7;1.2;;;;;;;18.17;76.4082;933.802;;;;
2021/07/14 08:32:13;;;;;;;2.7;1.2;;;;;;;19.14;69.29785;933.8113;;;;
2021/07/14 08:34:38;;;;;;;1;1;;;;;;;18;68.16699;933.7707;;;;
2021/07/14 08:37:06;;;;;;;1.3;1.1;;;;;;;18.79;70.33594;933.8768;;;;
2021/07/14 08:39:38;;;;;;;1.8;1.1;;;;;;;19.65;68.00293;933.8997;;;;
2021/07/14 08:42:04;;;;;;;1.5;1.1;;;;;;;19.89;63.30371;933.8663;;;;
2021/07/14 08:44:30;;;;;;;2.1;1.4;;;;;;;19.25;65.8457;933.8638;;;;
2021/07/14 08:46:55;;;;;;;1.5;1.2;;;;;;;18.88;66.87207;933.939;;;;
2021/07/14 08:49:20;;;;;;;2.3;1.3;;;;;;;18.35;69.13965;933.9924;;;;
2021/07/14 08:51:49;;;;;;;2.1;1.2;;;;;;;18.35;70.31348;933.9464;;;;
2021/07/14 08:54:14;;;;;;;1.3;1.2;;;;;;;18.31;69.58594;933.9129;;;;
2021/07/14 08:56:41;;;;;;;1.5;1.4;;;;;;;18.33;70.97168;933.9077;;;;
2021/07/14 08:59:06;;;;;;;1.5;1.4;;;;;;;18.51;68.66406;933.9182;;;;
2021/07/14 09:01:34;;;;;;;1.4;1.2;;;;;;;18.58;68.29102;933.9871;;;;
2021/07/14 09:04:00;;;;;;;1.6;1.3;;;;;;;18.57;66.24121;933.9691;;;;
2021/07/14 09:06:26;;;;;;;1.5;1.3;;;;;;;18.65;67.09375;934.0114;;;;
2021/07/14 09:08:51;;;;;;;1.4;1.3;;;;;;;18.61;67.2373;934.0387;;;;
2021/07/14 09:11:20;;;;;;;1.4;1.3;;;;;;;18.57;67.4873;934.0374;;;;
2021/07/14 09:13:50;;;;;;;4;1.8;;;;;;;18.27;68.7666;934.101;;;;
2021/07/14 09:16:20;;;;;;;1.9;1.7;;;;;;;18.06;69.92969;934.1483;;;;
2021/07/14 09:18:47;;;;;;;3.1;1.7;;;;;;;17.95;72.3623;934.1273;;;;
2021/07/14 09:21:13;;;;;;;1.5;1.4;;;;;;;17.85;73.1709;934.1646;;;;
2021/07/14 09:23:38;;;;;;;2.1;1.3;;;;;;;17.81;75.125;934.1646;;;;
2021/07/14 09:26:11;;;;;;;1.9;1.5;;;;;;;17.88;73.81348;934.1839;;;;
2021/07/14 09:28:38;;;;;;;2.2;1.6;;;;;;;17.88;75.61328;934.1517;;;;
2021/07/14 09:31:03;;;;;;;2.5;1.6;;;;;;;18.1;72.65527;934.1253;;;;
2021/07/14 09:33:30;;;;;;;1.7;1.6;;;;;;;18.05;76.0498;934.2274;;;;
2021/07/14 09:35:57;;;;;;;2.5;1.6;;;;;;;17.71;74.75977;934.2145;;;;
2021/07/14 09:38:21;;;;;;;1.4;1.3;;;;;;;17.59;73.89453;934.2455;;;;
2021/07/14 09:40:49;;;;;;;4.5;1.7;;;;;;;17.41;74.9541;934.2439;;;;
2021/07/14 09:43:14;;;;;;;2.1;1.4;;;;;;;17.39;77.30371;934.313;;;;
2021/07/14 09:45:42;;;;;;;2.4;1.5;;;;;;;17.36;76.91699;934.287;;;;
2021/07/14 09:48:07;;;;;;;2.2;1.6;;;;;;;17.23;78.43652;934.2626;;;;
2021/07/14 09:50:33;;;;;;;2;1.8;;;;;;;17.19;78.21973;934.2849;;;;
2021/07/14 09:52:58;;;;;;;2.2;1.7;;;;;;;17.39;78.25488;934.3563;;;;
2021/07/14 09:55:27;;;;;;;3.4;1.7;;;;;;;17.4;77.52637;934.3159;;;;
2021/07/14 09:57:52;;;;;;;2.1;1.7;;;;;;;17.38;76.75879;934.305;;;;
2021/07/14 10:00:20;;;;;;;4.9;1.7;;;;;;;17.36;77.24121;934.2444;;;;
2021/07/14 10:02:45;;;;;;;4;2;;;;;;;17.39;80.31934;934.2668;;;;
2021/07/14 10:05:10;;;;;;;75.2;67;;;;;;;17.03;79.5;934.3014;;;;
2021/07/14 10:07:36;;;;;;;3.8;1.9;;;;;;;16.99;78.93945;934.3517;;;;
2021/07/14 10:10:02;;;;;;;3.7;1.9;;;;;;;16.91;79.08496;934.3406;;;;
2021/07/14 10:12:27;;;;;;;2.1;1.9;;;;;;;16.5;79.54492;934.3802;;;;
2021/07/14 10:14:52;;;;;;;2.9;1.7;;;;;;;16.44;80.80566;934.3387;;;;
2021/07/14 10:17:18;;;;;;;2.3;1.9;;;;;;;16.63;81.18848;934.4077;;;;
2021/07/14 10:19:47;;;;;;;2.7;2;;;;;;;16.64;81.07422;934.3424;;;;
2021/07/14 10:22:14;;;;;;;3.7;3.1;;;;;;;16.56;82.10156;934.4016;;;;
2021/07/14 10:24:39;;;;;;;2.2;2;;;;;;;16.46;82.2002;934.3191;;;;
2021/07/14 10:27:04;;;;;;;1.8;1.7;;;;;;;16.03;84.99805;934.37;;;;
2021/07/14 10:29:29;;;;;;;2.9;2.1;;;;;;;16.12;84.73633;934.325;;;;
2021/07/14 10:31:57;;;;;;;10.6;9.6;;;;;;;16.01;83.8252;934.3364;;;;
2021/07/14 10:34:22;;;;;;;4.9;4.2;;;;;;;15.71;84.01074;934.3652;;;;
2021/07/14 10:36:47;;;;;;;2.4;2.2;;;;;;;15.57;85.37988;934.408;;;;
2021/07/14 10:39:14;;;;;;;6.6;6;;;;;;;15.51;85.75098;934.4947;;;;
2021/07/14 10:41:38;;;;;;;10.1;9.3;;;;;;;15.64;84.19336;934.4675;;;;
2021/07/14 10:44:07;;;;;;;3.9;3.3;;;;;;;15.7;82.45996;934.4747;;;;
2021/07/14 10:46:32;;;;;;;5.9;5.2;;;;;;;15.6;83.75879;934.6397;;;;
2021/07/14 10:48:58;;;;;;;4.6;4.2;;;;;;;15.74;82.07422;934.7043;;;;
2021/07/14 10:51:23;;;;;;;7.6;6.9;;;;;;;15.81;81.61426;934.8412;;;;
2021/07/14 10:53:49;;;;;;;11.9;10.8;;;;;;;15.93;83.61426;934.9143;;;;
2021/07/14 10:56:14;;;;;;;10.2;7.8;;;;;;;16.01;83.53613;934.9547;;;;
2021/07/14 10:58:40;;;;;;;3.8;3.4;;;;;;;15.73;82.28027;935.0328;;;;
2021/07/14 11:01:05;;;;;;;15;13.4;;;;;;;15.86;82.24805;935.0808;;;;
2021/07/14 11:03:32;;;;;;;395;205.2;;;;;;;15.86;83.42773;935.1234;;;;
2021/07/14 11:05:57;;;;;;;604.7;323.8;;;;;;;15.94;85.02441;935.1727;;;;
2021/07/14 11:08:22;;;;;;;3;2.7;;;;;;;15.6;87.28223;935.1717;;;;
2021/07/14 11:10:48;;;;;;;5.4;2.7;;;;;;;15.26;90.06641;935.176;;;;
2021/07/14 11:13:13;;;;;;;3;2.5;;;;;;;15.14;91.61133;935.2045;;;;
2021/07/14 11:15:46;;;;;;;6.2;2.7;;;;;;;15.15;92.55957;935.1322;;;;
2021/07/14 11:18:13;;;;;;;4.6;2.9;;;;;;;15.24;94.21777;935.2019;;;;
2021/07/14 11:20:38;;;;;;;4;3.1;;;;;;;15.33;93.9248;935.2623;;;;
2021/07/14 11:23:03;;;;;;;3.2;2.5;;;;;;;15.3;95.2793;935.2974;;;;
2021/07/14 11:25:31;;;;;;;3.2;2.6;;;;;;;15.19;95.22168;935.2632;;;;
2021/07/14 11:27:57;;;;;;;125.2;94.3;;;;;;;15.38;94.90527;935.3797;;;;
2021/07/14 11:30:25;;;;;;;3.1;2.8;;;;;;;15.37;93.75977;935.4376;;;;
2021/07/14 11:32:53;;;;;;;3.4;3.1;;;;;;;15.31;94.47363;935.4481;;;;
2021/07/14 11:35:18;;;;;;;4.5;3.1;;;;;;;15.35;94.4375;935.392;;;;
2021/07/14 11:37:46;;;;;;;3.6;2.8;;;;;;;15.24;93.96191;935.478;;;;
2021/07/14 11:40:15;;;;;;;3.4;2.9;;;;;;;15.27;94.1084;935.4654;;;;
2021/07/14 11:42:42;;;;;;;4.2;2.9;;;;;;;15.32;94.5791;935.4495;;;;
2021/07/14 11:45:08;;;;;;;4.4;3.1;;;;;;;15.34;95.64746;935.4364;;;;
2021/07/14 11:47:33;;;;;;;6.5;3.1;;;;;;;15.3;94.95605;935.4553;;;;
2021/07/14 11:49:59;;;;;;;3.6;3;;;;;;;15.34;94.88379;935.5239;;;;
2021/07/14 11:52:24;;;;;;;6;2.9;;;;;;;15.3;93.00586;935.5669;;;;
2021/07/14 11:54:53;;;;;;;4.1;3.2;;;;;;;15.38;93.38086;935.6051;;;;
2021/07/14 11:57:18;;;;;;;4.5;2.7;;;;;;;15.3;94.02148;935.6688;;;;
2021/07/14 11:59:47;;;;;;;4.2;2.5;;;;;;;15.3;93.63867;935.6624;;;;
2021/07/14 12:02:12;;;;;;;3.1;2.5;;;;;;;15.17;94.31543;935.7681;;;;
2021/07/14 12:04:38;;;;;;;2.8;2.2;;;;;;;14.9;95.01855;935.6844;;;;
2021/07/14 12:07:03;;;;;;;4.9;2.3;;;;;;;14.71;95.58789;935.7158;;;;
2021/07/14 12:09:28;;;;;;;2.7;2.5;;;;;;;14.78;95.51367;935.6379;;;;
2021/07/14 12:11:53;;;;;;;4;2.5;;;;;;;15.05;94.94922;935.6362;;;;
2021/07/14 12:14:18;;;;;;;5.8;3;;;;;;;15.22;94.23438;935.742;;;;
2021/07/14 12:16:43;;;;;;;3.3;2.5;;;;;;;15.3;93.45605;935.7698;;;;
2021/07/14 12:19:10;;;;;;;3;2.2;;;;;;;15.04;93.46875;935.7455;;;;
2021/07/14 12:21:35;;;;;;;2.8;2.1;;;;;;;15.13;93.40918;935.6746;;;;
2021/07/14 12:24:05;;;;;;;4.9;2.6;;;;;;;15.39;94.47949;935.7213;;;;
2021/07/14 12:26:30;;;;;;;3.5;2.5;;;;;;;15.5;92.44727;935.6928;;;;
2021/07/14 12:28:59;;;;;;;2.6;2.4;;;;;;;15.41;92.33594;935.6617;;;;
2021/07/14 12:31:25;;;;;;;3.6;2.2;;;;;;;15.67;91.94043;935.6174;;;;
2021/07/14 12:33:50;;;;;;;3.4;2.6;;;;;;;16.1;91.63867;935.5614;;;;
2021/07/14 12:36:18;;;;;;;8.7;7.2;;;;;;;16.3;87.30664;935.585;;;;
2021/07/14 12:38:43;;;;;;;15.9;12.6;;;;;;;16.58;88.13574;935.6071;;;;
2021/07/14 12:41:11;;;;;;;6.5;4.9;;;;;;;16.95;85.52441;935.6451;;;;
2021/07/14 12:43:36;;;;;;;2.7;1.9;;;;;;;16.72;82.72266;935.6516;;;;
2021/07/14 12:46:02;;;;;;;2.4;2.2;;;;;;;16.47;84.31836;935.5792;;;;
2021/07/14 12:48:28;;;;;;;9.4;8;;;;;;;17.11;86.93359;935.5715;;;;
2021/07/14 12:50:54;;;;;;;35.1;28.4;;;;;;;17.88;83.20898;935.5218;;;;
2021/07/14 12:53:19;;;;;;;13.1;11.4;;;;;;;18.52;79.14355;935.5047;;;;
2021/07/14 12:55:44;;;;;;;19.2;17.2;;;;;;;18.55;75.16016;935.4564;;;;
2021/07/14 12:58:10;;;;;;;7.8;6.2;;;;;;;19;75.54004;935.3516;;;;
2021/07/14 13:00:38;;;;;;;22.3;14.5;;;;;;;19.38;70.93066;935.4345;;;;
2021/07/14 13:03:04;;;;;;;3.2;2.6;;;;;;;19.4;73.28906;935.4476;;;;
2021/07/14 13:05:30;;;;;;;2.8;2.4;;;;;;;19.13;70.16992;935.4283;;;;
2021/07/14 13:07:55;;;;;;;2.2;1.9;;;;;;;18.72;71.23242;935.4866;;;;
2021/07/14 13:10:20;;;;;;;0.9;0.9;;;;;;;18.37;76.26953;935.4808;;;;
2021/07/14 13:12:48;;;;;;;0.8;0.8;;;;;;;18.15;75.74121;935.4449;;;;
2021/07/14 13:15:13;;;;;;;1.2;0.9;;;;;;;18.1;71.8418;935.4252;;;;
2021/07/14 13:17:38;;;;;;;0.9;0.7;;;;;;;17.52;73.8457;935.4221;;;;
2021/07/14 13:20:07;;;;;;;1.3;0.9;;;;;;;17.37;76.11816;935.4626;;;;
2021/07/14 13:22:32;;;;;;;1.2;1.1;;;;;;;17.64;77.1748;935.4219;;;;
2021/07/14 13:24:59;;;;;;;4.8;2.2;;;;;;;17.54;77.37793;935.4417;;;;
2021/07/14 13:27:27;;;;;;;2.3;1.6;;;;;;;18.09;78.47559;935.4647;;;;
2021/07/14 13:29:52;;;;;;;1.6;1.2;;;;;;;18.4;75.65723;935.4026;;;;
2021/07/14 13:32:17;;;;;;;1.5;1.3;;;;;;;18.66;73.42188;935.4292;;;;
2021/07/14 13:34:43;;;;;;;1.5;1.4;;;;;;;18.61;75.73926;935.4565;;;;
2021/07/14 13:37:08;;;;;;;1.5;1.4;;;;;;;18.8;74.2959;935.4949;;;;
2021/07/14 13:39:38;;;;;;;6.4;5.7;;;;;;;19.14;73.90918;935.4586;;;;
2021/07/14 13:43:21;;;;;;;2.1;1.2;;;;;;;19.12;73.61523;935.4633;;;;
2021/07/14 13:45:46;;;;;;;3.1;1.4;;;;;;;19.34;70.93652;935.4542;;;;
2021/07/14 13:48:13;;;;;;;3.1;1.6;;;;;;;19.81;72.09668;935.4897;;;;
2021/07/14 13:50:38;;;;;;;1.2;1.1;;;;;;;20.09;69.9834;935.4597;;;;
2021/07/14 13:53:03;;;;;;;1.6;1.2;;;;;;;20.15;68.48828;935.4391;;;;
2021/07/14 13:55:29;;;;;;;1.4;1.3;;;;;;;20.15;69.00195;935.3986;;;;
2021/07/14 13:57:54;;;;;;;1.6;1.4;;;;;;;19.85;69.38672;935.3408;;;;
2021/07/14 14:00:19;;;;;;;1.9;1.4;;;;;;;19.94;68.30469;935.3056;;;;
2021/07/14 14:02:45;;;;;;;1.6;1.5;;;;;;;19.86;69.29492;935.2684;;;;
2021/07/14 14:05:16;;;;;;;1.4;1.3;;;;;;;20.14;68.13672;935.3019;;;;
2021/07/14 14:07:42;;;;;;;2.4;1.4;;;;;;;20.28;71.54492;935.3364;;;;
2021/07/14 14:10:06;;;;;;;1.7;1.5;;;;;;;20.65;66.04102;935.2888;;;;
2021/07/14 14:12:34;;;;;;;1.4;1.3;;;;;;;20.56;65.45703;935.34;;;;
2021/07/14 14:15:08;;;;;;;1.2;1;;;;;;;20.71;64.55469;935.3448;;;;
2021/07/14 14:17:33;;;;;;;1.8;1.2;;;;;;;20.83;63.61328;935.3024;;;;
2021/07/14 14:20:02;;;;;;;1.5;1;;;;;;;20.33;63.56543;935.2299;;;;
2021/07/14 14:22:27;;;;;;;1.3;1;;;;;;;20.65;63.29492;935.2855;;;;
2021/07/14 14:25:04;;;;;;;1.2;1.1;;;;;;;20.94;63.44336;935.2747;;;;
2021/07/14 14:27:45;;;;;;;1;1;;;;;;;20.94;63.57031;935.2256;;;;
2021/07/14 14:29:50;;;;;;;1.2;1;;;;;;;21.06;61.58789;935.2814;;;;